Flight Track Log - Related Links

Times and Time Zones

All times are in EDT time to prevent confusion due to time zone crossing. See the UPS605 flight status page for this flight to view local times or setup timezone preferences in your user account.

Time Position Orientation Groundspeed Altitude Reporting Facility
EDT Latitude Longitude Course Direction KTS MPH feet Rate Location/Type
Sat 12:01:12 AM 42.0000 -87.9333 166° South 173 199 2,500  Level Chicago TRACON
Sat 12:06:08 AM 41.6817 -87.8236 166° South 296 341 13,200 2,265 Climbing Chicago Center
Sat 12:07:07 AM 41.5978 -87.7950 168° South 313 360 15,900 2,067 Climbing Chicago Center
Sat 12:08:07 AM 41.4975 -87.7669 167° South 339 390 17,300 1,400 Climbing Chicago Center
Sat 12:09:07 AM 41.3822 -87.7311 169° South 383 441 18,700 1,800 Climbing Chicago Center
Sat 12:10:07 AM 41.2503 -87.6956 169° South 418 481 20,900 2,300 Climbing Chicago Center
Sat 12:11:07 AM 41.1269 -87.6628 170° South 446 513 23,300 1,942 Climbing Chicago Center
Sat 12:13:34 AM 40.8225 -87.5886 168° South 479 551 27,600 1,594 Climbing Indianapolis Center
Sat 12:14:34 AM 40.6944 -87.5536 168° South 479 551 28,800 700 Climbing Indianapolis Center
Sat 12:15:34 AM 40.5664 -87.5189 168° South 479 551 29,000 100 Climbing Indianapolis Center
Sat 12:16:34 AM 40.4319 -87.4811 169° South 484 557 29,000  Level Indianapolis Center
Sat 12:17:34 AM 40.2997 -87.4464 167° South 484 557 29,000  Level Indianapolis Center
Sat 12:18:35 AM 40.1739 -87.4097 169° South 484 557 29,000  Level Indianapolis Center
Sat 12:19:34 AM 40.0436 -87.3753 168° South 484 557 29,000  Level Indianapolis Center
Sat 12:20:34 AM 39.9011 -87.3350 170° South 484 557 29,000  Level Indianapolis Center
Sat 12:21:34 AM 39.7706 -87.3064 190° South 484 557 29,000  Level Indianapolis Center
Sat 12:22:34 AM 39.6403 -87.3372 192° South 479 551 29,000  Level Indianapolis Center
Sat 12:23:34 AM 39.5142 -87.3708 191° South 484 557 29,000  Level Indianapolis Center
Sat 12:24:34 AM 39.3836 -87.4042 190° South 479 551 29,000  Level Indianapolis Center
Sat 12:25:34 AM 39.2533 -87.4347 191° South 479 551 29,000  Level Indianapolis Center
Sat 12:26:34 AM 39.1272 -87.4653 192° South 470 541 29,000  Level Indianapolis Center
Sat 12:27:34 AM 39.0031 -87.4986 192° South 463 533 29,000  Level Indianapolis Center
Sat 12:28:34 AM 38.8769 -87.5317 191° South 463 533 29,000  Level Indianapolis Center
Sat 12:29:34 AM 38.7464 -87.5644 172° South 470 541 29,000  Level Indianapolis Center
Sat 12:30:34 AM 38.6136 -87.5414 169° South 475 547 29,000  Level Indianapolis Center
Sat 12:31:34 AM 38.4814 -87.5075 171° South 481 554 29,000  Level Indianapolis Center
Sat 12:32:34 AM 38.3486 -87.4817 170° South 481 554 29,000 -300 Level Indianapolis Center
Sat 12:33:34 AM 38.2267 -87.4542 170° South 487 560 28,400 -850 Descending Indianapolis Center
Sat 12:34:34 AM 38.0919 -87.4231 169° South 487 560 27,300 -1,100 Descending Indianapolis Center
Sat 12:35:34 AM 37.9617 -87.3900 159° South 487 560 26,200 -1,100 Descending Indianapolis Center
Sat 12:36:34 AM 37.8486 -87.3342 144° Southeast 458 527 25,100 -1,700 Descending Indianapolis Center
Sat 12:37:34 AM 37.7475 -87.2397 127° Southeast 441 507 22,800 -1,900 Descending Indianapolis Center
Sat 12:38:34 AM 37.6739 -87.1181 127° Southeast 441 507 21,300 -1,400 Descending Indianapolis Center
Sat 12:39:34 AM 37.6064 -87.0044 125° Southeast 429 494 20,000 -1,550 Descending Indianapolis Center
Sat 12:40:34 AM 37.5450 -86.8942 118° Southeast 409 471 18,200 -1,400 Descending Indianapolis Center
Sat 12:41:34 AM 37.4942 -86.7717 107° East 385 443 17,200 -1,000 Descending Indianapolis Center
Sat 12:42:34 AM 37.4661 -86.6553 92° East 354 407 16,200 -1,000 Descending Indianapolis Center
Sat 12:43:34 AM 37.4628 -86.5400 80° East 338 389 15,200 -1,050 Descending Indianapolis Center
Sat 12:44:34 AM 37.4781 -86.4306 76° East 323 372 14,100 -1,071 Descending Indianapolis Center
Sat 12:45:26 AM 37.4967 -86.3350 76° East 314 361 13,200 -968 Descending FAA TRACON SMA TRACON (SMA)
Sat 12:46:07 AM 37.5097 -86.2703 76° East 309 356 12,600 -900 Descending FAA TRACON SMA TRACON (SMA)
Sat 12:46:46 AM 37.5244 -86.1975 76° East 311 358 12,000 -911 Descending FAA TRACON SMA TRACON (SMA)
Sat 12:47:26 AM 37.5372 -86.1339 76° East 306 352 11,400 -750 Descending FAA TRACON SMA TRACON (SMA)
Sat 12:48:06 AM 37.5517 -86.0625 105° East 300 345 11,000 -300 Descending FAA TRACON SMA TRACON (SMA)
Sat 12:48:46 AM 37.5378 -85.9956 171° South 314 361 11,000  Level FAA TRACON SMA TRACON (SMA)
Sat 12:49:27 AM 37.4875 -85.9850 204° Southwest 278 320 11,000  Level FAA TRACON SMA TRACON (SMA)
Sat 12:50:06 AM 37.4475 -86.0075 220° Southwest 254 292 11,000  Level FAA TRACON SMA TRACON (SMA)
Sat 12:50:46 AM 37.4106 -86.0461 229° Southwest 250 288 11,000  Level FAA TRACON SMA TRACON (SMA)
Sat 12:51:26 AM 37.3800 -86.0900 229° Southwest 243 280 11,000  Level FAA TRACON SMA TRACON (SMA)
Sat 12:52:06 AM 37.3528 -86.1294 232° Southwest 245 282 11,000  Level FAA TRACON SMA TRACON (SMA)
Sat 12:52:47 AM 37.3233 -86.1767 281° West 247 284 11,000  Level FAA TRACON SMA TRACON (SMA)
Sat 12:53:27 AM 37.3311 -86.2281 326° Northwest 270 311 11,000  Level FAA TRACON SMA TRACON (SMA)
Sat 12:54:06 AM 37.3639 -86.2561 35° Northeast 245 282 11,000  Level FAA TRACON SMA TRACON (SMA)
Sat 12:54:46 AM 37.4028 -86.2217 66° East 261 300 11,000  Level FAA TRACON SMA TRACON (SMA)
Sat 12:55:26 AM 37.4244 -86.1592 72° East 280 322 11,000  Level FAA TRACON SMA TRACON (SMA)
Sat 12:56:07 AM 37.4397 -86.1011 61° Northeast 285 328 11,000  Level FAA TRACON SMA TRACON (SMA)
Sat 12:56:47 AM 37.4658 -86.0408 83° East 285 328 11,000  Level FAA TRACON SMA TRACON (SMA)
Sat 12:57:35 AM 37.4736 -85.9647 147° Southeast 310 357 11,000  Level FAA TRACON SMA TRACON (SMA)
Sat 12:58:09 AM 37.4347 -85.9333 212° Southwest 299 344 11,000  Level FAA TRACON SMA TRACON (SMA)
Sat 12:58:46 AM 37.4011 -85.9597 276° West 247 284 11,000  Level FAA TRACON SMA TRACON (SMA)
Sat 12:59:27 AM 37.4056 -86.0133 261° West 243 280 11,000  Level FAA TRACON SMA TRACON (SMA)
Sat 01:00:10 AM 37.3992 -86.0644 208° Southwest 230 265 11,000  Level FAA TRACON SMA TRACON (SMA)
Sat 01:00:46 AM 37.3703 -86.0839 230° Southwest 250 288 11,000  Level FAA TRACON SMA TRACON (SMA)
Sat 01:01:26 AM 37.3339 -86.1386 243° Southwest 245 282 11,000  Level FAA TRACON SMA TRACON (SMA)
Sat 01:02:06 AM 37.3156 -86.1847 277° West 241 277 11,000  Level FAA TRACON SMA TRACON (SMA)
Sat 01:02:47 AM 37.3211 -86.2417 340° North 241 277 11,000  Level FAA TRACON SMA TRACON (SMA)
Sat 01:03:27 AM 37.3614 -86.2597 North 247 284 11,000  Level FAA TRACON SMA TRACON (SMA)
Sat 01:04:06 AM 37.4036 -86.2578 North 243 280 11,000  Level FAA TRACON SMA TRACON (SMA)
Sat 01:04:46 AM 37.4508 -86.2536 North 246 283 11,000  Level FAA TRACON SMA TRACON (SMA)
Sat 01:05:26 AM 37.5006 -86.2500 North 260 299 11,000  Level FAA TRACON SMA TRACON (SMA)
Sat 01:06:07 AM 37.5478 -86.2469 North 276 318 11,000 -593 Level FAA TRACON SMA TRACON (SMA)
Sat 01:06:47 AM 37.6006 -86.2436 North 274 315 10,200 -1,367 Descending FAA TRACON SMA TRACON (SMA)
Sat 01:07:26 AM 37.6464 -86.2386 North 271 312 9,200 -1,671 Descending FAA TRACON SMA TRACON (SMA)
Sat 01:08:06 AM 37.6983 -86.2339 North 270 311 8,000 -1,575 Descending FAA TRACON SMA TRACON (SMA)
Sat 01:08:46 AM 37.7517 -86.2317 North 274 315 7,100 -741 Descending FAA TRACON SMA TRACON (SMA)
Sat 01:09:27 AM 37.7978 -86.2294 North 268 308 7,000 -74 Descending FAA TRACON SMA TRACON (SMA)
Sat 01:10:07 AM 37.8506 -86.2275 North 273 314 7,000  Level FAA TRACON SMA TRACON (SMA)
Sat 01:10:47 AM 37.9019 -86.2242 North 268 308 7,000  Level FAA TRACON SMA TRACON (SMA)
Sat 01:11:26 AM 37.9467 -86.2219 North 262 302 7,000 -456 Level FAA TRACON SMA TRACON (SMA)
Sat 01:12:06 AM 37.9911 -86.2192 North 228 262 6,400 -741 Descending FAA TRACON SMA TRACON (SMA)
Sat 01:12:47 AM 38.0342 -86.2158 North 224 258 6,000 -296 Descending FAA TRACON SMA TRACON (SMA)
Sat 01:13:27 AM 38.0728 -86.2133 27° Northeast 222 255 6,000  Level FAA TRACON SMA TRACON (SMA)
Sat 01:14:07 AM 38.1111 -86.1886 91° East 248 285 6,000 -76 Level FAA TRACON SMA TRACON (SMA)
Sat 01:14:46 AM 38.1100 -86.1244 97° East 270 311 5,900 -684 Descending FAA TRACON SMA TRACON (SMA)
Sat 01:15:26 AM 38.1047 -86.0678 98° East 264 304 5,100 -1,214 Descending FAA TRACON SMA TRACON (SMA)
Sat 01:16:10 AM 38.0972 -85.9972 98° East 261 300 4,200 -815 Descending FAA TRACON SMA TRACON (SMA)
Sat 01:16:47 AM 38.0911 -85.9442 99° East 244 281 4,000 -545 Descending FAA TRACON SMA TRACON (SMA)
Sat 01:17:27 AM 38.0842 -85.8889 118° Southeast 230 265 3,500 -675 Descending FAA TRACON SMA TRACON (SMA)
Sat 01:18:07 AM 38.0667 -85.8469 122° Southeast 216 249 3,100 -380 Descending FAA TRACON SMA TRACON (SMA)
Sat 01:18:46 AM 38.0461 -85.8047 122° Southeast 202 232 3,000 -154 Descending FAA TRACON SMA TRACON (SMA)

Login

Don't have an account? Register now (free) for customized features, flight alerts, and more!